Airfield :
LOGIN :

Register | Disclaimer

   EN    FR    IT 

 










Legend :    VFR   Marginal VFR   IFR   Intensive IFR   Very Intensive IFR
Visi :
Ceiling :
>= 8 km
>= 3000ft
5 to 8 km
1000 to 3000 ft
1500m to 5 km
500 to 1000 ft
800 to 1500m
200 to 500 ft
< 800m
< 200 ft
Symbols :   Thunderstorms  Fog  Heavy snow  Heavy precipitations  Wind > 20 kt
SIGMETs :     Misc.  Thunderstorms  Icing  Turbulence  Mountain Waves  Volcanic Ashes







- Airport Elevation : 659 ft
- IATA code : LGG


EBLG - Liège

CURRENT METAR :
  • 180150Z 14008KT 4000 HZ NSC 13/08 Q1015 NOSIG

EXPIRED METARs :
  • 180120Z 13006KT 3500 R22L/P2000N R22R/1300D R04R/1400U HZ NSC 13/08 Q1015 NOSIG
  • 180050Z 12005KT 5000 BR NSC 14/09 Q1015 NOSIG
  • 180020Z 12005KT 4000 BR NSC 13/13 Q1015 NOSIG
  • 172350Z 13006KT 4000 BR NSC 13/13 Q1016 NOSIG
  • 172320Z 13005KT 090V250 4500 HZ NSC 14/10 Q1016 NOSIG

TAF TAF EBLG
Valid from the 18 at 00:00 until the 19 at 06:00 UTC


172300Z 1800/1906 10004KT 6000 NSC
BECMG 1800/1802 3000 BR
TEMPO 1802/1807 0500 FG
BECMG 1807/1809 CAVOK
No reported NOTAMs for that airfield.



MET'MAP, your aeronautical weather chart ! - Copyright ORBIFLY December 2007 - Disclaimer

ORBIFLY MET'MAP TEAM :

Programming & Development : Alexandra Zaïnal
Concept & Development : Baudouin d'Aumeries
Co-Development & Prog : Marc-Olivier Méhu
Technical & hardware support : Manuel Goepfert

Contact : metmap@orbifly.com




SOURCES & CREDITS :

   NOAA